アデレード の空港の天気 - METARとTAF

アデレード空港 ( YPAD / ADL ) - オーストラリア 南オーストラリア州アデレード
飛行場実況気象(Metar)
観測時間05/28 19:30 ACST (05/28 10:00 UTC)
風向・風速西南西 4m/s
視程10km以上
天気現象
少しの雲 雲底高度 610m
全天の8割程度の雲 雲底高度 1520m
気温15℃
湿度63%
気圧1014hPa
METARYPAD 281000Z 25007KT 9999 FEW020 BKN050 15/08 Q1014
過去の天気等 Google飛行場航空写真 Wunderground天気予報

過去48時間のMETAR

飛行場予報(TAF)
発表時間: 5/28 17:54 ACST (5/28 08:24 UTC)
予報対象時間: 28日18時 ACST ~ 29日21時 ACST
風向・風速西南西 5m/s
視程10km以上
全天の8割程度の雲 雲底高度 910m
28日21時 ACST から
風向・風速不定 2m/s
視程10km以上
少しの雲 雲底高度 300m
全天の4割程度の雲 雲底高度 610m
29日1時 ACST から
風向・風速北東 3m/s
視程10km以上
全天の4割程度の雲 雲底高度 150m
全天の8割程度の雲 雲底高度 910m
29日11時 ACST から
風向・風速北 7m/s
視程10km以上
全天の4割程度の雲 雲底高度 910m
29日15時 ACST から
風向・風速北北東 6m/s
視程10km以上
天気現象弱い雨
全天の4割程度の雲 雲底高度 910m
TAF YPAD 280824Z 2809/2912 24010KT 9999 BKN030
FM281200 VRB03KT 9999 FEW010 SCT020
FM281600 04005KT 9999 SCT005 BKN030
FM290200 36013KT 9999 SCT030
FM290600 02012KT 9999 -RA SCT030